createdAt,value
2019-02-11T00:02:00.092Z,1.33
2019-02-11T00:04:28.984Z,0.60
2019-02-11T00:06:57.985Z,3.27
2019-02-11T00:09:26.884Z,4.60
2019-02-11T00:11:55.785Z,1.30
2019-02-11T00:14:25.796Z,2.00
2019-02-11T00:16:54.696Z,1.93
2019-02-11T00:19:23.608Z,1.40
2019-02-11T00:21:52.526Z,0.77
2019-02-11T00:24:21.415Z,0.83
2019-02-11T00:26:50.300Z,2.93
2019-02-11T00:29:19.236Z,1.50
2019-02-11T00:31:48.192Z,1.50
2019-02-11T00:34:17.162Z,1.07
2019-02-11T00:36:46.090Z,1.20
2019-02-11T00:39:14.991Z,1.07
2019-02-11T00:41:43.883Z,1.20
2019-02-11T00:44:12.813Z,2.20
2019-02-11T00:46:41.718Z,1.60
2019-02-11T00:49:10.607Z,3.40
2019-02-11T00:51:39.519Z,1.23
2019-02-11T00:54:08.408Z,1.63
2019-02-11T00:56:37.300Z,2.10
2019-02-11T00:59:06.206Z,1.93
2019-02-11T01:01:35.100Z,0.90
2019-02-11T01:04:03.993Z,3.33
2019-02-11T01:06:33.663Z,2.30
2019-02-11T01:09:02.552Z,1.20
2019-02-11T01:11:33.088Z,1.07
2019-02-11T01:14:01.980Z,3.03
2019-02-11T01:16:30.879Z,1.50
2019-02-11T01:18:59.809Z,0.97
2019-02-11T01:21:28.709Z,2.30
2019-02-11T01:23:57.623Z,1.03
2019-02-11T01:26:26.640Z,0.77
2019-02-11T01:28:55.535Z,2.90
2019-02-11T01:31:24.440Z,2.23
2019-02-11T01:33:53.401Z,3.07
2019-02-11T01:36:22.292Z,1.97
2019-02-11T01:38:52.161Z,2.93
2019-02-11T01:41:21.120Z,0.87
2019-02-11T01:43:50.075Z,5.70
2019-02-11T01:46:19.048Z,2.50
2019-02-11T01:48:48.016Z,4.07
2019-02-11T01:51:16.921Z,2.80
2019-02-11T01:53:45.806Z,2.07
2019-02-11T01:56:14.706Z,1.17
2019-02-11T01:58:43.611Z,2.83
2019-02-11T02:01:12.503Z,3.23
2019-02-11T02:03:41.413Z,2.93
2019-02-11T02:06:10.301Z,1.30
2019-02-11T02:08:39.221Z,3.43
2019-02-11T02:11:08.180Z,2.43
2019-02-11T02:13:44.649Z,1.27
2019-02-11T02:16:07.847Z,2.00
2019-02-11T02:18:36.741Z,1.90
2019-02-11T02:21:05.633Z,2.40
2019-02-11T02:23:34.585Z,1.50
2019-02-11T02:26:03.482Z,2.87
2019-02-11T02:28:32.387Z,3.57
2019-02-11T02:31:01.297Z,4.43
2019-02-11T02:33:30.186Z,1.57
2019-02-11T02:35:59.091Z,3.23
2019-02-11T02:38:28.024Z,3.07
2019-02-11T02:40:56.919Z,6.70
2019-02-11T02:43:25.815Z,2.43
2019-02-11T02:45:54.730Z,2.67
2019-02-11T02:48:23.627Z,1.87
2019-02-11T02:50:52.524Z,2.73
2019-02-11T02:53:21.440Z,4.97
2019-02-11T02:55:50.344Z,2.93
2019-02-11T02:58:19.351Z,2.97
2019-02-11T03:00:48.242Z,5.50
2019-02-11T03:03:17.133Z,1.13
2019-02-11T03:05:46.042Z,1.80
2019-02-11T03:08:14.942Z,6.33
2019-02-11T03:10:43.861Z,6.37
2019-02-11T03:13:12.851Z,3.10
2019-02-11T03:15:41.762Z,7.50
2019-02-11T03:18:10.657Z,4.00
2019-02-11T03:20:39.609Z,4.83
2019-02-11T03:23:08.500Z,7.50
2019-02-11T03:25:37.393Z,3.73
2019-02-11T03:28:06.302Z,11.03
2019-02-11T03:30:35.212Z,3.47
2019-02-11T03:33:04.122Z,5.33
2019-02-11T03:35:33.542Z,8.37
2019-02-11T03:38:02.453Z,3.73
2019-02-11T03:40:31.707Z,3.70
2019-02-11T03:43:00.629Z,6.53
2019-02-11T03:45:29.517Z,3.30
2019-02-11T03:47:58.411Z,4.50
2019-02-11T03:50:27.345Z,10.03
2019-02-11T03:52:56.301Z,5.77
2019-02-11T03:55:25.208Z,4.23
2019-02-11T03:57:54.132Z,3.60
2019-02-11T04:00:23.035Z,5.03
2019-02-11T04:02:51.940Z,4.37
2019-02-11T04:05:20.841Z,6.40
2019-02-11T04:07:49.740Z,3.77
2019-02-11T04:10:18.657Z,9.83
2019-02-11T04:12:48.516Z,5.73
2019-02-11T04:15:17.420Z,3.73
2019-02-11T04:17:46.363Z,5.33
2019-02-11T04:20:15.264Z,7.97
2019-02-11T04:22:44.152Z,4.93
2019-02-11T04:25:13.248Z,6.30
2019-02-11T04:27:43.108Z,3.87
2019-02-11T04:30:11.997Z,5.10
2019-02-11T04:32:40.907Z,4.30
2019-02-11T04:35:09.873Z,6.33
2019-02-11T04:37:38.771Z,4.87
2019-02-11T04:40:09.147Z,7.40
2019-02-11T04:42:38.029Z,7.17
2019-02-11T04:45:08.098Z,5.57
2019-02-11T04:47:37.012Z,3.97
2019-02-11T04:50:08.169Z,4.50
2019-02-11T04:52:37.059Z,4.07
2019-02-11T04:55:07.043Z,4.67
2019-02-11T04:57:36.024Z,3.30
2019-02-11T05:00:14.166Z,3.03
2019-02-11T05:02:43.138Z,3.43
2019-02-11T05:05:12.106Z,5.23
2019-02-11T05:07:41.067Z,4.53
2019-02-11T05:10:11.284Z,2.67
2019-02-11T05:12:40.164Z,3.60
2019-02-11T05:15:10.023Z,4.20
2019-02-11T05:17:38.946Z,1.37
2019-02-11T05:20:11.201Z,7.97
2019-02-11T05:22:40.120Z,2.40
2019-02-11T05:25:09.178Z,4.10
2019-02-11T05:27:38.141Z,7.50
2019-02-11T05:30:10.293Z,6.03
2019-02-11T05:32:39.181Z,2.30
2019-02-11T05:35:08.350Z,1.70
2019-02-11T05:37:37.269Z,3.67
2019-02-11T05:40:07.825Z,3.40
2019-02-11T05:42:36.729Z,6.33
2019-02-11T05:45:06.501Z,4.60
2019-02-11T05:47:35.401Z,2.73
2019-02-11T05:50:05.826Z,2.40
2019-02-11T05:52:34.767Z,3.07
2019-02-11T05:55:03.920Z,2.33
2019-02-11T05:57:32.813Z,3.10
2019-02-11T06:00:01.795Z,2.67
2019-02-11T06:02:30.934Z,2.30
2019-02-11T06:04:59.843Z,3.17
2019-02-11T06:07:28.771Z,2.93
2019-02-11T06:09:57.668Z,1.90
2019-02-11T06:12:26.786Z,2.97
2019-02-11T06:15:04.055Z,3.43
2019-02-11T06:17:26.273Z,4.53
2019-02-11T06:19:55.212Z,4.00
2019-02-11T06:22:24.104Z,4.67
2019-02-11T06:24:53.099Z,5.57
2019-02-11T06:27:22.020Z,4.00
2019-02-11T06:29:50.918Z,5.03
2019-02-11T06:32:20.730Z,5.90
2019-02-11T06:34:49.631Z,4.10
2019-02-11T06:37:18.566Z,4.43
2019-02-11T06:39:47.454Z,8.53
2019-02-11T06:42:16.373Z,4.17
2019-02-11T06:44:45.293Z,5.23
2019-02-11T06:47:14.200Z,6.13
2019-02-11T06:49:43.096Z,5.47
2019-02-11T06:52:12.012Z,6.93
2019-02-11T06:54:40.908Z,7.37
2019-02-11T06:57:09.798Z,5.17
2019-02-11T06:59:38.702Z,5.00
2019-02-11T07:02:07.593Z,2.87
2019-02-11T07:04:36.521Z,6.37
2019-02-11T07:07:05.415Z,8.17
2019-02-11T07:09:34.320Z,3.03
2019-02-11T07:12:03.250Z,3.43
2019-02-11T07:14:32.239Z,6.13
2019-02-11T07:17:01.124Z,4.87
2019-02-11T07:19:30.139Z,3.20
2019-02-11T07:21:59.032Z,5.60
2019-02-11T07:24:27.927Z,4.13
2019-02-11T07:26:56.849Z,4.27
2019-02-11T07:29:25.736Z,9.63
2019-02-11T07:31:54.637Z,3.50
2019-02-11T07:34:23.604Z,2.27
2019-02-11T07:36:52.488Z,3.63
2019-02-11T07:39:21.400Z,4.37
2019-02-11T07:42:07.051Z,6.00
2019-02-11T07:44:37.576Z,5.67
2019-02-11T07:47:07.245Z,6.13
2019-02-11T07:49:36.318Z,5.70
2019-02-11T07:52:05.227Z,5.80
2019-02-11T07:54:34.171Z,4.67
2019-02-11T07:57:03.099Z,6.80
2019-02-11T07:59:32.025Z,4.87
2019-02-11T08:02:02.082Z,6.03
2019-02-11T08:04:30.962Z,4.20
2019-02-11T08:06:59.870Z,5.73
2019-02-11T08:09:28.774Z,6.40
2019-02-11T08:11:57.676Z,6.87
2019-02-11T08:14:26.596Z,5.93
2019-02-11T08:16:55.494Z,7.57
2019-02-11T08:19:24.389Z,7.03
2019-02-11T08:21:53.331Z,7.27
2019-02-11T08:24:22.224Z,10.03
2019-02-11T08:26:51.117Z,7.13
2019-02-11T08:29:20.088Z,9.67
2019-02-11T08:31:48.989Z,9.77
2019-02-11T08:34:18.068Z,8.03
2019-02-11T08:36:46.954Z,6.97
2019-02-11T08:39:15.913Z,6.07
2019-02-11T08:41:45.664Z,5.87
2019-02-11T08:44:14.698Z,11.07
2019-02-11T08:46:43.579Z,7.17
2019-02-11T08:49:12.499Z,10.00
2019-02-11T08:51:41.391Z,6.93
2019-02-11T08:54:10.282Z,9.97
2019-02-11T08:56:39.199Z,6.20
2019-02-11T08:59:08.094Z,9.50
2019-02-11T09:01:37.064Z,11.13
2019-02-11T09:04:05.981Z,8.57
2019-02-11T09:06:34.950Z,11.43
2019-02-11T09:09:04.881Z,11.00
2019-02-11T09:11:34.478Z,7.23
2019-02-11T09:14:03.443Z,8.67
2019-02-11T09:16:32.401Z,12.13
2019-02-11T09:19:01.354Z,14.10
2019-02-11T09:21:30.239Z,8.97
2019-02-11T09:23:59.135Z,8.70
2019-02-11T09:26:28.058Z,8.80
2019-02-11T09:28:58.057Z,11.73
2019-02-11T09:31:27.024Z,6.83
2019-02-11T09:33:55.911Z,12.80
2019-02-11T09:36:24.835Z,11.93
2019-02-11T09:38:53.752Z,11.00
2019-02-11T09:41:22.644Z,15.83
2019-02-11T09:43:51.581Z,10.00
2019-02-11T09:46:20.639Z,8.30
2019-02-11T09:48:49.535Z,13.17
2019-02-11T09:51:19.096Z,7.57
2019-02-11T09:53:48.018Z,10.23
2019-02-11T09:56:16.991Z,3.73
2019-02-11T09:58:45.942Z,10.70
2019-02-11T10:01:14.904Z,9.97
2019-02-11T10:03:43.807Z,6.83
2019-02-11T10:06:13.778Z,10.50
2019-02-11T10:08:43.679Z,7.83
2019-02-11T10:11:12.587Z,7.07
2019-02-11T10:13:41.481Z,8.53
2019-02-11T10:16:12.503Z,6.63
2019-02-11T10:18:41.070Z,12.20
2019-02-11T10:21:09.974Z,12.10
2019-02-11T10:23:38.904Z,5.67
2019-02-11T10:26:07.807Z,10.87
2019-02-11T10:28:36.709Z,9.43
2019-02-11T10:31:05.641Z,5.83
2019-02-11T10:33:34.530Z,5.10
2019-02-11T10:36:03.487Z,9.17
2019-02-11T10:38:36.482Z,11.40
2019-02-11T10:41:03.141Z,7.60
2019-02-11T10:43:32.034Z,9.70
2019-02-11T10:46:01.040Z,9.90
2019-02-11T10:48:29.939Z,7.23
2019-02-11T10:50:58.902Z,9.60
2019-02-11T10:53:27.899Z,7.23
2019-02-11T10:55:56.890Z,9.13
2019-02-11T10:58:25.852Z,10.93
2019-02-11T11:00:54.763Z,7.87
2019-02-11T11:03:23.737Z,9.13
2019-02-11T11:05:52.624Z,9.30
2019-02-11T11:08:21.569Z,6.87
2019-02-11T11:10:50.473Z,6.97
2019-02-11T11:13:19.441Z,8.80
2019-02-11T11:15:48.421Z,7.70
2019-02-11T11:18:17.317Z,7.93
2019-02-11T11:20:46.287Z,9.87
2019-02-11T11:23:15.383Z,7.77
2019-02-11T11:25:45.125Z,4.13
2019-02-11T11:28:14.037Z,8.80
2019-02-11T11:30:42.963Z,7.90
2019-02-11T11:33:11.885Z,6.17
2019-02-11T11:35:40.793Z,12.87
2019-02-11T11:38:09.796Z,7.57
2019-02-11T11:40:38.680Z,7.13
2019-02-11T11:43:07.812Z,8.90
2019-02-11T11:45:36.951Z,7.37
2019-02-11T11:48:05.995Z,8.50
2019-02-11T11:50:34.894Z,4.57
2019-02-11T11:53:03.893Z,9.17
2019-02-11T11:55:32.910Z,5.33
2019-02-11T11:58:01.835Z,9.80
2019-02-11T12:00:32.191Z,5.50
2019-02-11T12:03:04.286Z,9.80
2019-02-11T12:05:31.756Z,6.53
2019-02-11T12:08:00.802Z,5.53
2019-02-11T12:10:29.754Z,7.17
2019-02-11T12:12:58.801Z,8.33
2019-02-11T12:15:27.780Z,9.47
2019-02-11T12:17:56.737Z,7.20
2019-02-11T12:20:25.733Z,6.80
2019-02-11T12:22:54.611Z,7.10
2019-02-11T12:25:23.513Z,5.57
2019-02-11T12:27:52.410Z,6.73
2019-02-11T12:30:25.206Z,6.20
2019-02-11T12:32:55.658Z,6.97
2019-02-11T12:35:24.778Z,4.47
2019-02-11T12:37:53.803Z,4.50
2019-02-11T12:40:22.767Z,11.00
2019-02-11T12:42:53.160Z,3.30
2019-02-11T12:45:23.449Z,7.50
2019-02-11T12:47:52.356Z,9.90
2019-02-11T12:50:21.318Z,3.83
2019-02-11T12:52:50.312Z,4.07
2019-02-11T12:55:19.340Z,4.30
2019-02-11T12:57:48.237Z,5.00
2019-02-11T13:00:18.434Z,4.37
2019-02-11T13:02:47.574Z,8.97
2019-02-11T13:05:16.655Z,6.93
2019-02-11T13:07:45.627Z,7.97
2019-02-11T13:10:17.740Z,7.47
2019-02-11T13:12:46.784Z,4.20
2019-02-11T13:15:41.540Z,8.73
2019-02-11T13:17:48.257Z,6.90
2019-02-11T13:20:17.816Z,6.73
2019-02-11T13:22:47.736Z,9.23
2019-02-11T13:25:17.158Z,6.83
2019-02-11T13:27:46.244Z,4.97
2019-02-11T13:30:15.977Z,7.40
2019-02-11T13:32:45.076Z,7.57
2019-02-11T13:35:14.088Z,5.53
2019-02-11T13:37:43.111Z,8.83
2019-02-11T13:40:12.154Z,3.53
2019-02-11T13:42:41.213Z,3.70
2019-02-11T13:45:11.149Z,6.23
2019-02-11T13:47:53.505Z,7.70
2019-02-11T13:50:15.440Z,5.87
2019-02-11T13:52:44.335Z,5.90
2019-02-11T13:55:13.313Z,6.00
2019-02-11T13:57:43.346Z,5.27
2019-02-11T14:00:29.475Z,9.23
2019-02-11T14:02:59.271Z,9.70
2019-02-11T14:05:28.561Z,8.60
2019-02-11T14:07:58.345Z,9.67
2019-02-11T14:10:27.434Z,9.77
2019-02-11T14:12:57.645Z,5.70
2019-02-11T14:15:26.566Z,5.23
2019-02-11T14:18:10.549Z,7.00
2019-02-11T14:20:27.777Z,10.83
2019-02-11T14:22:56.755Z,8.07
2019-02-11T14:25:42.137Z,10.40
2019-02-11T14:27:56.435Z,10.37
2019-02-11T14:30:25.334Z,8.63
2019-02-11T14:32:54.357Z,9.23
2019-02-11T14:35:23.553Z,12.33
2019-02-11T14:37:52.631Z,4.00
2019-02-11T14:40:23.004Z,9.90
2019-02-11T14:42:52.022Z,4.67
2019-02-11T14:45:21.204Z,6.40
2019-02-11T14:47:50.251Z,3.97
2019-02-11T14:50:20.308Z,6.07
2019-02-11T14:52:49.269Z,5.53
2019-02-11T14:55:18.275Z,10.90
2019-02-11T14:57:47.196Z,3.77
2019-02-11T15:00:18.534Z,4.77
2019-02-11T15:02:48.531Z,3.67
2019-02-11T15:05:18.853Z,7.10
2019-02-11T15:07:47.811Z,3.17
2019-02-11T15:10:19.550Z,8.17
2019-02-11T15:12:49.270Z,6.73
2019-02-11T15:15:18.197Z,4.53
2019-02-11T15:17:47.096Z,5.13
2019-02-11T15:20:16.161Z,4.10
2019-02-11T15:22:45.112Z,3.63
2019-02-11T15:25:14.880Z,5.33
2019-02-11T15:27:43.909Z,3.23
2019-02-11T15:30:13.794Z,5.87
2019-02-11T15:32:42.696Z,3.93
2019-02-11T15:35:11.599Z,3.90
2019-02-11T15:37:40.487Z,4.90
2019-02-11T15:40:11.441Z,7.80
2019-02-11T15:42:40.473Z,4.60
2019-02-11T15:45:10.816Z,4.63
2019-02-11T15:47:39.696Z,4.27
2019-02-11T15:50:09.781Z,4.23
2019-02-11T15:52:38.675Z,6.87
2019-02-11T15:55:09.273Z,3.40
2019-02-11T15:57:39.151Z,4.03
2019-02-11T16:00:18.209Z,3.73
2019-02-11T16:02:47.103Z,5.43
2019-02-11T16:05:16.670Z,6.37
2019-02-11T16:07:45.975Z,4.17
2019-02-11T16:10:15.957Z,7.07
2019-02-11T16:12:44.851Z,4.77
2019-02-11T16:15:13.899Z,6.80
2019-02-11T16:17:42.807Z,3.23
2019-02-11T16:20:14.453Z,5.07
2019-02-11T16:22:43.284Z,4.27
2019-02-11T16:25:13.244Z,7.40
2019-02-11T16:27:42.129Z,6.20
2019-02-11T16:30:18.171Z,5.70
2019-02-11T16:32:47.244Z,3.30
2019-02-11T16:35:16.813Z,6.87
2019-02-11T16:37:45.821Z,3.67
2019-02-11T16:40:21.817Z,3.57
2019-02-11T16:42:50.762Z,4.67
2019-02-11T16:45:19.734Z,3.40
2019-02-11T16:47:48.732Z,3.37
2019-02-11T16:50:17.941Z,1.90
2019-02-11T16:52:46.918Z,4.40
2019-02-11T16:55:15.942Z,4.37
2019-02-11T16:57:44.889Z,5.13
2019-02-11T17:00:14.962Z,3.40
2019-02-11T17:02:44.032Z,6.37
2019-02-11T17:05:13.532Z,3.60
2019-02-11T17:07:42.575Z,3.70
2019-02-11T17:10:12.254Z,3.60
2019-02-11T17:12:41.344Z,4.63
2019-02-11T17:15:11.807Z,9.97
2019-02-11T17:17:40.773Z,8.67
2019-02-11T17:20:11.685Z,11.67
2019-02-11T17:22:40.584Z,5.97
2019-02-11T17:25:10.157Z,3.60
2019-02-11T17:27:39.080Z,3.70
2019-02-11T17:30:09.648Z,4.63
2019-02-11T17:32:38.551Z,9.27
2019-02-11T17:35:08.656Z,4.70
2019-02-11T17:37:37.616Z,4.87
2019-02-11T17:40:08.210Z,5.13
2019-02-11T17:42:37.183Z,3.67
2019-02-11T17:45:10.388Z,4.73
2019-02-11T17:47:39.357Z,7.90
2019-02-11T17:50:09.246Z,6.23
2019-02-11T17:52:38.285Z,2.87
2019-02-11T17:55:08.697Z,3.07
2019-02-11T17:57:37.665Z,2.20
2019-02-11T18:00:15.974Z,5.83
2019-02-11T18:02:44.978Z,5.37
2019-02-11T18:05:13.880Z,3.90
2019-02-11T18:07:42.818Z,5.30
2019-02-11T18:10:11.774Z,5.17
2019-02-11T18:12:40.690Z,6.37
2019-02-11T18:15:10.455Z,5.97
2019-02-11T18:17:39.345Z,6.23
2019-02-11T18:20:08.616Z,6.67
2019-02-11T18:22:37.775Z,6.67
2019-02-11T18:25:07.537Z,5.67
2019-02-11T18:27:36.443Z,4.17
2019-02-11T18:30:07.282Z,5.60
2019-02-11T18:32:36.164Z,5.73
2019-02-11T18:35:06.597Z,5.47
2019-02-11T18:37:35.569Z,9.70
2019-02-11T18:40:05.644Z,7.63
2019-02-11T18:42:34.582Z,8.27
2019-02-11T18:45:04.442Z,6.43
2019-02-11T18:47:33.820Z,6.00
2019-02-11T18:50:03.381Z,9.70
2019-02-11T18:52:32.413Z,9.17
2019-02-11T18:55:01.358Z,9.67
2019-02-11T18:57:30.252Z,10.97
2019-02-11T18:59:59.147Z,10.10
2019-02-11T19:02:28.144Z,11.17
2019-02-11T19:04:57.114Z,10.00
2019-02-11T19:07:26.087Z,11.43
2019-02-11T19:09:55.092Z,11.17
2019-02-11T19:12:24.037Z,15.00
2019-02-11T19:14:53.108Z,11.30
2019-02-11T19:17:22.107Z,11.43
2019-02-11T19:19:51.010Z,9.17
2019-02-11T19:22:19.919Z,12.10
2019-02-11T19:24:48.941Z,10.77
2019-02-11T19:27:17.907Z,10.27
2019-02-11T19:29:46.839Z,11.83
2019-02-11T19:32:16.099Z,10.90
2019-02-11T19:34:45.053Z,13.63
2019-02-11T19:37:14.013Z,12.83
2019-02-11T19:39:43.914Z,10.43
2019-02-11T19:42:12.888Z,12.77
2019-02-11T19:44:41.821Z,12.93
2019-02-11T19:47:10.718Z,11.77
2019-02-11T19:49:39.612Z,11.07
2019-02-11T19:52:08.578Z,12.40
2019-02-11T19:54:37.469Z,12.63
2019-02-11T19:57:06.441Z,10.57
2019-02-11T19:59:35.453Z,15.47
2019-02-11T20:02:04.390Z,12.53
2019-02-11T20:04:34.312Z,11.57
2019-02-11T20:07:03.312Z,11.67
2019-02-11T20:09:33.023Z,9.80
2019-02-11T20:12:02.256Z,14.37
2019-02-11T20:14:31.244Z,17.63
2019-02-11T20:17:00.153Z,15.20
2019-02-11T20:19:29.040Z,15.60
2019-02-11T20:21:57.979Z,15.00
2019-02-11T20:24:26.865Z,12.60
2019-02-11T20:26:55.769Z,11.97
2019-02-11T20:29:25.894Z,11.53
2019-02-11T20:31:54.794Z,13.70
2019-02-11T20:34:25.153Z,13.07
2019-02-11T20:36:54.198Z,11.63
2019-02-11T20:39:23.083Z,13.97
2019-02-11T20:41:51.981Z,12.17
2019-02-11T20:44:20.936Z,13.63
2019-02-11T20:46:49.841Z,19.73
2019-02-11T20:49:18.817Z,13.73
2019-02-11T20:51:47.728Z,14.27
2019-02-11T20:54:16.698Z,12.07
2019-02-11T20:56:45.669Z,15.33
2019-02-11T20:59:14.587Z,18.87
2019-02-11T21:01:43.574Z,15.43
2019-02-11T21:04:12.474Z,14.27
2019-02-11T21:06:41.398Z,18.43
2019-02-11T21:09:10.391Z,18.83
2019-02-11T21:14:57.262Z,14.63
2019-02-11T21:17:26.196Z,23.07
2019-02-11T21:19:55.096Z,14.37
2019-02-11T21:22:24.199Z,14.43
2019-02-11T21:24:53.169Z,15.37
2019-02-11T21:27:22.074Z,15.00
2019-02-11T21:29:51.008Z,14.40
2019-02-11T21:32:19.900Z,16.27
2019-02-11T21:34:48.791Z,12.90
2019-02-11T21:37:17.742Z,14.50
2019-02-11T21:39:46.639Z,13.47
2019-02-11T21:42:15.546Z,11.37
2019-02-11T21:44:45.458Z,14.17
2019-02-11T21:47:14.353Z,13.77
2019-02-11T21:49:43.265Z,18.13
2019-02-11T21:52:12.203Z,12.10
2019-02-11T21:54:41.102Z,15.60
2019-02-11T21:57:10.069Z,17.20
2019-02-11T21:59:39.013Z,14.27
2019-02-11T22:02:08.035Z,19.50
2019-02-11T22:04:37.070Z,18.03
2019-02-11T22:07:06.002Z,17.97
2019-02-11T22:09:34.978Z,19.43
2019-02-11T22:12:03.952Z,20.07
2019-02-11T22:14:32.903Z,25.50
2019-02-11T22:17:01.797Z,19.03
2019-02-11T22:19:30.712Z,18.47
2019-02-11T22:21:59.648Z,20.13
2019-02-11T22:24:28.567Z,19.53
2019-02-11T22:26:57.484Z,19.47
2019-02-11T22:29:26.412Z,18.10
2019-02-11T22:31:55.318Z,18.33
2019-02-11T22:34:24.223Z,15.27
2019-02-11T22:36:53.152Z,17.30
2019-02-11T22:39:22.123Z,18.37
2019-02-11T22:41:51.033Z,17.83
2019-02-11T22:44:19.967Z,20.50
2019-02-11T22:46:48.868Z,19.67
2019-02-11T22:49:17.778Z,18.90
2019-02-11T22:51:46.698Z,18.20
2019-02-11T22:54:15.605Z,15.03
2019-02-11T22:56:44.512Z,20.07
2019-02-11T22:59:13.587Z,15.63
2019-02-11T23:01:42.550Z,14.77
2019-02-11T23:04:11.544Z,18.13
2019-02-11T23:06:40.605Z,19.57
2019-02-11T23:09:11.155Z,17.90
2019-02-11T23:11:40.300Z,15.43
2019-02-11T23:14:09.240Z,15.17
2019-02-11T23:16:38.763Z,16.37
2019-02-11T23:19:07.933Z,14.87
2019-02-11T23:21:36.849Z,16.27
2019-02-11T23:24:05.752Z,15.13
2019-02-11T23:26:34.739Z,17.13
2019-02-11T23:29:03.793Z,17.73
2019-02-11T23:31:32.756Z,16.83
2019-02-11T23:34:01.673Z,13.93
2019-02-11T23:36:30.583Z,20.37
2019-02-11T23:38:59.483Z,13.80
2019-02-11T23:41:28.420Z,15.40
2019-02-11T23:43:57.319Z,16.90
2019-02-11T23:46:26.221Z,16.93
2019-02-11T23:48:56.106Z,18.00
2019-02-11T23:51:25.014Z,13.07
2019-02-11T23:53:53.912Z,13.27
2019-02-11T23:56:22.813Z,17.07
2019-02-11T23:58:51.729Z,12.03
